Aviation Digital Data Service (ADDS)

Output produced by METARs form (0405 UTC 24 May 2017)
found at http://aviationweather.gov/adds/metars/
 
METAR text: KBFM 240353Z 23004KT 10SM SCT050 SCT060 24/23 A2973 RMK AO2 SLP067 T02440233
Conditions at: KBFM (MOBILE/BROOKLEY , AL, US) observed 0353 UTC 24 May 2017
Temperature: 24.4°C (76°F)
Dewpoint: 23.3°C (74°F) [RH = 94%]
Pressure (altimeter): 29.73 inches Hg (1006.9 mb)
[Sea-level pressure: 1006.7 mb]
Winds: from the SW (230 degrees) at 5 MPH (4 knots; 2.1 m/s)
Visibility: 10 or more miles (16+ km)
Ceiling: at least 12,000 feet AGL
Clouds: scattered clouds at 5000 feet AGL
scattered clouds at 6000 feet AGL
Weather: no significant weather observed at this time